createdAt,value
2018-01-01T00:01:38.233Z,11.50
2018-01-01T00:04:04.424Z,11.50
2018-01-01T00:06:31.752Z,11.40
2018-01-01T00:09:01.418Z,11.40
2018-01-01T00:11:28.561Z,11.40
2018-01-01T00:13:54.851Z,11.30
2018-01-01T00:16:21.063Z,11.30
2018-01-01T00:18:47.343Z,11.30
2018-01-01T00:21:13.656Z,11.20
2018-01-01T00:23:40.801Z,11.20
2018-01-01T00:26:07.035Z,11.20
2018-01-01T00:28:33.274Z,11.20
2018-01-01T00:30:59.505Z,11.20
2018-01-01T00:33:25.720Z,11.20
2018-01-01T00:35:51.944Z,11.10
2018-01-01T00:38:18.172Z,11.10
2018-01-01T00:40:44.396Z,11.10
2018-01-01T00:43:11.689Z,11.10
2018-01-01T00:45:37.861Z,11.10
2018-01-01T00:48:04.371Z,11.00
2018-01-01T00:50:31.370Z,11.00
2018-01-01T00:52:57.735Z,11.00
2018-01-01T00:55:23.963Z,11.00
2018-01-01T00:57:51.083Z,11.00
2018-01-01T01:00:19.586Z,10.90
2018-01-01T01:02:45.825Z,10.90
2018-01-01T01:05:15.937Z,10.90
2018-01-01T01:07:42.532Z,10.90
2018-01-01T01:10:08.855Z,10.90
2018-01-01T01:12:35.105Z,10.90
2018-01-01T01:15:02.245Z,10.80
2018-01-01T01:17:28.541Z,10.80
2018-01-01T01:19:54.777Z,10.80
2018-01-01T01:22:21.226Z,10.80
2018-01-01T01:24:48.414Z,10.80
2018-01-01T01:27:14.625Z,10.70
2018-01-01T01:29:41.084Z,10.80
2018-01-01T01:32:07.298Z,10.80
2018-01-01T01:34:33.525Z,10.80
2018-01-01T01:36:59.752Z,10.70
2018-01-01T01:39:25.993Z,10.70
2018-01-01T01:41:52.172Z,10.70
2018-01-01T01:44:18.420Z,10.70
2018-01-01T01:46:45.171Z,10.70
2018-01-01T01:49:12.364Z,10.60
2018-01-01T01:51:38.609Z,10.60
2018-01-01T01:54:04.798Z,10.60
2018-01-01T01:56:30.982Z,10.60
2018-01-01T01:58:57.166Z,10.60
2018-01-01T02:01:23.584Z,10.60
2018-01-01T02:03:49.810Z,10.50
2018-01-01T02:06:16.084Z,10.50
2018-01-01T02:08:42.592Z,10.50
2018-01-01T02:11:08.990Z,10.50
2018-01-01T02:16:07.091Z,10.50
2018-01-01T02:18:33.279Z,10.40
2018-01-01T02:20:59.511Z,10.40
2018-01-01T02:23:25.976Z,10.40
2018-01-01T02:25:52.169Z,10.40
2018-01-01T02:28:19.151Z,10.40
2018-01-01T02:30:45.541Z,10.30
2018-01-01T02:33:11.759Z,10.30
2018-01-01T02:35:37.926Z,10.30
2018-01-01T02:38:04.227Z,10.30
2018-01-01T02:40:30.405Z,10.30
2018-01-01T02:42:56.646Z,10.20
2018-01-01T02:45:22.990Z,10.20
2018-01-01T02:47:50.148Z,10.20
2018-01-01T02:50:16.342Z,10.20
2018-01-01T02:52:43.305Z,10.10
2018-01-01T02:55:10.300Z,10.10
2018-01-01T02:57:36.537Z,10.10
2018-01-01T03:00:02.738Z,10.10
2018-01-01T03:02:29.775Z,10.10
2018-01-01T03:04:56.093Z,10.10
2018-01-01T03:07:22.275Z,10.00
2018-01-01T03:09:48.448Z,10.00
2018-01-01T03:12:16.559Z,10.00
2018-01-01T03:14:43.602Z,9.90
2018-01-01T03:17:09.804Z,10.00
2018-01-01T03:19:36.063Z,9.90
2018-01-01T03:22:02.402Z,9.90
2018-01-01T03:24:28.606Z,9.90
2018-01-01T03:26:54.800Z,9.90
2018-01-01T03:29:21.278Z,9.90
2018-01-01T03:31:47.484Z,9.90
2018-01-01T03:34:13.704Z,9.90
2018-01-01T03:36:39.936Z,9.90
2018-01-01T03:39:06.183Z,9.90
2018-01-01T03:41:32.353Z,9.90
2018-01-01T03:43:58.647Z,9.80
2018-01-01T03:46:24.855Z,9.80
2018-01-01T03:48:51.021Z,9.80
2018-01-01T03:51:17.393Z,9.80
2018-01-01T03:53:44.329Z,9.80
2018-01-01T03:56:10.498Z,9.80
2018-01-01T03:58:36.789Z,9.80
2018-01-01T04:01:03.024Z,9.70
2018-01-01T04:03:29.228Z,9.80
2018-01-01T04:05:55.420Z,9.70
2018-01-01T04:08:21.704Z,9.70
2018-01-01T04:10:47.930Z,9.70
2018-01-01T04:13:14.884Z,9.70
2018-01-01T04:15:41.271Z,9.70
2018-01-01T04:18:07.453Z,9.80
2018-01-01T04:20:33.646Z,9.80
2018-01-01T04:23:00.331Z,9.80
2018-01-01T04:25:26.523Z,9.70
2018-01-01T04:27:52.699Z,9.60
2018-01-01T04:30:19.089Z,9.30
2018-01-01T04:32:45.267Z,8.90
2018-01-01T04:35:11.514Z,8.60
2018-01-01T04:37:37.854Z,8.50
2018-01-01T04:40:04.031Z,8.30
2018-01-01T04:42:30.986Z,8.20
2018-01-01T04:44:57.210Z,8.20
2018-01-01T04:47:23.565Z,8.10
2018-01-01T04:49:50.547Z,8.00
2018-01-01T04:52:16.740Z,7.90
2018-01-01T04:54:42.994Z,7.90
2018-01-01T04:57:09.191Z,7.90
2018-01-01T04:59:35.417Z,7.90
2018-01-01T05:02:01.685Z,7.80
2018-01-01T05:04:28.592Z,7.80
2018-01-01T05:06:54.853Z,7.80
2018-01-01T05:09:21.035Z,7.80
2018-01-01T05:11:48.516Z,7.90
2018-01-01T05:14:14.715Z,7.80
2018-01-01T05:16:40.960Z,7.90
2018-01-01T05:19:07.172Z,7.90
2018-01-01T05:21:33.463Z,8.00
2018-01-01T05:23:59.636Z,8.00
2018-01-01T05:26:26.630Z,8.10
2018-01-01T05:28:52.833Z,8.10
2018-01-01T05:31:18.995Z,8.10
2018-01-01T05:33:45.421Z,8.10
2018-01-01T05:36:11.592Z,8.10
2018-01-01T05:38:37.794Z,8.10
2018-01-01T05:41:04.054Z,8.10
2018-01-01T05:43:31.214Z,8.10
2018-01-01T05:45:57.407Z,8.10
2018-01-01T05:48:24.342Z,8.10
2018-01-01T05:50:51.243Z,8.10
2018-01-01T05:53:17.423Z,8.10
2018-01-01T05:55:43.655Z,8.10
2018-01-01T05:58:09.872Z,8.00
2018-01-01T06:00:36.112Z,8.00
2018-01-01T06:03:02.341Z,8.00
2018-01-01T06:05:29.634Z,7.80
2018-01-01T06:07:55.895Z,7.90
2018-01-01T06:10:22.170Z,7.80
2018-01-01T06:12:48.351Z,7.80
2018-01-01T06:15:15.509Z,7.70
2018-01-01T06:17:41.723Z,7.60
2018-01-01T06:20:07.927Z,7.70
2018-01-01T06:22:34.144Z,7.60
2018-01-01T06:25:00.325Z,7.60
2018-01-01T06:27:26.664Z,7.60
2018-01-01T06:29:52.836Z,7.60
2018-01-01T06:32:19.964Z,7.50
2018-01-01T06:34:46.199Z,7.50
2018-01-01T06:37:12.398Z,7.50
2018-01-01T06:39:38.887Z,7.50
2018-01-01T06:42:05.134Z,7.50
2018-01-01T06:44:31.592Z,7.40
2018-01-01T06:46:57.901Z,7.40
2018-01-01T06:49:24.103Z,7.40
2018-01-01T06:51:50.350Z,7.40
2018-01-01T06:54:17.317Z,7.30
2018-01-01T06:56:44.437Z,7.30
2018-01-01T06:59:10.592Z,7.30
2018-01-01T07:01:36.782Z,7.30
2018-01-01T07:04:03.129Z,7.30
2018-01-01T07:06:29.330Z,7.20
2018-01-01T07:08:55.515Z,7.30
2018-01-01T07:11:22.495Z,7.20
2018-01-01T07:13:48.723Z,7.20
2018-01-01T07:16:14.906Z,7.20
2018-01-01T07:18:41.309Z,7.20
2018-01-01T07:21:07.492Z,7.20
2018-01-01T07:23:33.668Z,7.20
2018-01-01T07:26:00.006Z,7.20
2018-01-01T07:28:26.211Z,7.20
2018-01-01T07:30:52.379Z,7.20
2018-01-01T07:33:18.799Z,7.20
2018-01-01T07:35:45.008Z,7.30
2018-01-01T07:38:11.165Z,7.30
2018-01-01T07:40:37.453Z,7.30
2018-01-01T07:43:04.795Z,7.30
2018-01-01T07:45:31.010Z,7.40
2018-01-01T07:47:57.182Z,7.40
2018-01-01T07:50:23.626Z,7.30
2018-01-01T07:52:49.797Z,7.40
2018-01-01T07:55:15.958Z,7.40
2018-01-01T07:57:42.324Z,7.40
2018-01-01T08:00:08.487Z,7.40
2018-01-01T08:02:35.434Z,7.40
2018-01-01T08:05:01.752Z,7.40
2018-01-01T08:07:27.942Z,7.40
2018-01-01T08:09:54.114Z,7.50
2018-01-01T08:12:21.070Z,7.50
2018-01-01T08:14:47.391Z,7.50
2018-01-01T08:17:13.582Z,7.50
2018-01-01T08:19:39.731Z,7.50
2018-01-01T08:22:06.002Z,7.50
2018-01-01T08:24:32.893Z,7.50
2018-01-01T08:26:59.063Z,7.50
2018-01-01T08:29:26.222Z,7.50
2018-01-01T08:31:53.164Z,7.60
2018-01-01T08:34:19.336Z,7.60
2018-01-01T08:36:46.288Z,7.70
2018-01-01T08:39:12.475Z,7.70
2018-01-01T08:41:38.730Z,7.70
2018-01-01T08:44:04.928Z,7.70
2018-01-01T08:46:31.272Z,7.80
2018-01-01T08:48:57.459Z,7.80
2018-01-01T08:51:23.628Z,7.90
2018-01-01T08:53:50.867Z,7.90
2018-01-01T08:56:17.012Z,7.80
2018-01-01T08:58:43.196Z,7.90
2018-01-01T09:01:10.256Z,7.90
2018-01-01T09:03:36.512Z,7.90
2018-01-01T09:06:02.732Z,7.90
2018-01-01T09:08:29.026Z,7.90
2018-01-01T09:10:55.202Z,7.90
2018-01-01T09:13:21.508Z,7.90
2018-01-01T09:15:47.704Z,7.90
2018-01-01T09:18:13.900Z,8.00
2018-01-01T09:20:40.108Z,8.00
2018-01-01T09:23:06.395Z,8.00
2018-01-01T09:25:33.527Z,8.00
2018-01-01T09:27:59.688Z,8.00
2018-01-01T09:30:25.876Z,8.00
2018-01-01T09:32:52.252Z,8.00
2018-01-01T09:35:19.523Z,8.00
2018-01-01T09:37:45.696Z,8.00
2018-01-01T09:40:11.914Z,8.00
2018-01-01T09:42:38.083Z,8.10
2018-01-01T09:45:04.269Z,8.10
2018-01-01T09:47:30.618Z,8.10
2018-01-01T09:49:56.765Z,8.10
2018-01-01T09:52:22.954Z,8.10
2018-01-01T09:54:49.272Z,8.10
2018-01-01T09:57:16.509Z,8.20
2018-01-01T09:59:43.417Z,8.10
2018-01-01T10:02:09.724Z,8.10
2018-01-01T10:04:35.948Z,8.10
2018-01-01T10:07:03.279Z,8.20
2018-01-01T10:09:29.549Z,8.20
2018-01-01T10:11:55.792Z,8.20
2018-01-01T10:14:22.131Z,8.20
2018-01-01T10:16:48.316Z,8.20
2018-01-01T10:19:14.485Z,8.30
2018-01-01T10:21:41.515Z,8.30
2018-01-01T10:24:07.770Z,8.30
2018-01-01T10:26:33.971Z,8.30
2018-01-01T10:29:00.226Z,8.30
2018-01-01T10:31:26.574Z,8.30
2018-01-01T10:33:53.519Z,8.20
2018-01-01T10:36:19.846Z,8.20
2018-01-01T10:38:46.039Z,8.00
2018-01-01T10:41:12.203Z,7.80
2018-01-01T10:43:38.677Z,7.80
2018-01-01T10:46:04.874Z,7.60
2018-01-01T10:48:31.814Z,7.70
2018-01-01T10:50:58.068Z,7.60
2018-01-01T10:53:24.542Z,7.70
2018-01-01T10:55:51.443Z,7.70
2018-01-01T10:58:17.732Z,7.70
2018-01-01T11:00:44.134Z,7.60
2018-01-01T11:03:10.315Z,7.60
2018-01-01T11:05:37.237Z,7.60
2018-01-01T11:08:04.155Z,7.70
2018-01-01T11:10:31.320Z,7.70
2018-01-01T11:12:57.555Z,7.70
2018-01-01T11:15:23.935Z,7.80
2018-01-01T11:17:50.295Z,7.80
2018-01-01T11:20:16.516Z,7.80
2018-01-01T11:22:42.683Z,7.80
2018-01-01T11:25:09.616Z,7.70
2018-01-01T11:27:36.669Z,7.70
2018-01-01T11:30:02.906Z,7.80
2018-01-01T11:32:29.228Z,7.70
2018-01-01T11:37:28.504Z,7.50
2018-01-01T11:39:54.740Z,7.50
2018-01-01T11:42:20.968Z,7.50
2018-01-01T11:44:47.195Z,7.40
2018-01-01T11:47:14.190Z,7.40
2018-01-01T11:49:40.492Z,7.40
2018-01-01T11:52:06.690Z,7.60
2018-01-01T11:54:32.964Z,7.60
2018-01-01T11:57:00.223Z,7.80
2018-01-01T11:59:26.616Z,8.10
2018-01-01T12:01:53.598Z,8.10
2018-01-01T12:04:19.812Z,8.10
2018-01-01T12:06:46.104Z,8.00
2018-01-01T12:09:12.365Z,8.10
2018-01-01T12:11:38.576Z,8.10
2018-01-01T12:14:04.979Z,8.00
2018-01-01T12:16:31.508Z,7.90
2018-01-01T12:18:57.700Z,7.80
2018-01-01T12:21:23.868Z,7.80
2018-01-01T12:23:50.048Z,7.90
2018-01-01T12:26:16.219Z,8.10
2018-01-01T12:28:42.613Z,8.20
2018-01-01T12:31:08.860Z,8.30
2018-01-01T12:33:35.766Z,8.50
2018-01-01T12:36:01.924Z,8.50
2018-01-01T12:38:28.163Z,8.50
2018-01-01T12:40:54.583Z,8.50
2018-01-01T12:43:20.773Z,8.60
2018-01-01T12:45:46.994Z,8.50
2018-01-01T12:48:13.265Z,8.60
2018-01-01T12:50:39.452Z,8.60
2018-01-01T12:53:07.283Z,8.60
2018-01-01T12:55:33.459Z,8.60
2018-01-01T12:57:59.657Z,8.60
2018-01-01T13:00:26.054Z,8.50
2018-01-01T13:02:52.296Z,8.40
2018-01-01T13:05:18.472Z,8.30
2018-01-01T13:10:16.240Z,8.30
2018-01-01T13:12:42.461Z,8.30
2018-01-01T13:15:08.851Z,8.30
2018-01-01T13:17:35.810Z,8.20
2018-01-01T13:20:01.987Z,8.20
2018-01-01T13:22:28.477Z,8.10
2018-01-01T13:24:54.734Z,8.10
2018-01-01T13:27:21.657Z,8.10
2018-01-01T13:29:48.599Z,8.10
2018-01-01T13:32:16.456Z,8.10
2018-01-01T13:34:43.592Z,8.10
2018-01-01T13:37:10.576Z,8.10
2018-01-01T13:39:36.843Z,8.00
2018-01-01T13:42:03.113Z,8.10
2018-01-01T13:44:29.312Z,8.10
2018-01-01T13:46:55.519Z,8.10
2018-01-01T13:49:21.787Z,8.00
2018-01-01T13:51:48.730Z,8.10
2018-01-01T13:54:14.933Z,8.10
2018-01-01T13:56:41.847Z,8.10
2018-01-01T13:59:08.260Z,8.00
2018-01-01T14:01:34.476Z,8.10
2018-01-01T14:04:01.570Z,8.10
2018-01-01T14:06:28.284Z,8.10
2018-01-01T14:08:54.483Z,8.10
2018-01-01T14:11:20.684Z,8.10
2018-01-01T14:13:46.951Z,8.10
2018-01-01T14:16:13.142Z,8.10
2018-01-01T14:18:39.378Z,8.10
2018-01-01T14:21:05.589Z,8.10
2018-01-01T14:23:31.847Z,8.10
2018-01-01T14:25:58.012Z,8.10
2018-01-01T14:28:24.326Z,8.20
2018-01-01T14:30:50.560Z,8.20
2018-01-01T14:33:16.760Z,8.20
2018-01-01T14:35:43.288Z,8.20
2018-01-01T14:38:09.446Z,8.10
2018-01-01T14:40:35.627Z,8.10
2018-01-01T14:43:02.010Z,8.10
2018-01-01T14:45:28.299Z,8.10
2018-01-01T14:47:54.557Z,8.10
2018-01-01T14:50:20.996Z,8.10
2018-01-01T14:52:47.172Z,8.10
2018-01-01T14:55:13.728Z,8.10
2018-01-01T14:57:39.930Z,8.10
2018-01-01T15:00:06.676Z,8.10
2018-01-01T15:02:33.584Z,8.10
2018-01-01T15:04:59.806Z,8.10
2018-01-01T15:07:26.735Z,8.10
2018-01-01T15:09:52.909Z,8.10
2018-01-01T15:12:19.136Z,8.10
2018-01-01T15:14:45.347Z,8.10
2018-01-01T15:17:11.515Z,8.10
2018-01-01T15:19:37.707Z,8.10
2018-01-01T15:22:03.983Z,8.10
2018-01-01T15:24:30.181Z,8.10
2018-01-01T15:26:57.441Z,8.10
2018-01-01T15:29:23.601Z,8.10
2018-01-01T15:31:49.913Z,8.10
2018-01-01T15:34:16.937Z,8.10
2018-01-01T15:36:44.008Z,8.10
2018-01-01T15:39:10.252Z,8.10
2018-01-01T15:41:36.576Z,8.10
2018-01-01T15:44:02.807Z,8.10
2018-01-01T15:46:28.988Z,8.10
2018-01-01T15:48:55.498Z,8.10
2018-01-01T15:51:21.681Z,8.10
2018-01-01T15:53:48.514Z,8.10
2018-01-01T15:56:14.831Z,8.10
2018-01-01T15:58:41.259Z,8.10
2018-01-01T16:01:08.240Z,8.10
2018-01-01T16:03:34.548Z,8.10
2018-01-01T16:06:00.830Z,8.10
2018-01-01T16:08:27.074Z,8.00
2018-01-01T16:10:53.436Z,8.00
2018-01-01T16:13:19.780Z,8.00
2018-01-01T16:15:46.167Z,7.90
2018-01-01T16:18:12.391Z,7.90
2018-01-01T16:20:40.074Z,7.90
2018-01-01T16:23:06.449Z,7.80
2018-01-01T16:25:32.684Z,7.70
2018-01-01T16:27:58.966Z,7.70
2018-01-01T16:30:25.285Z,7.70
2018-01-01T16:32:51.635Z,7.70
2018-01-01T16:35:17.844Z,7.60
2018-01-01T16:37:44.284Z,7.60
2018-01-01T16:40:10.550Z,7.60
2018-01-01T16:42:36.754Z,7.60
2018-01-01T16:45:03.043Z,7.60
2018-01-01T16:47:29.265Z,7.60
2018-01-01T16:49:55.436Z,7.50
2018-01-01T16:52:21.872Z,7.50
2018-01-01T16:54:48.098Z,7.50
2018-01-01T16:57:14.325Z,7.50
2018-01-01T16:59:41.349Z,7.40
2018-01-01T17:02:07.551Z,7.40
2018-01-01T17:04:33.751Z,7.40
2018-01-01T17:06:59.950Z,7.30
2018-01-01T17:09:26.192Z,7.40
2018-01-01T17:11:52.379Z,7.40
2018-01-01T17:14:18.656Z,7.30
2018-01-01T17:16:44.847Z,7.40
2018-01-01T17:19:11.835Z,7.30
2018-01-01T17:21:38.020Z,7.30
2018-01-01T17:24:04.215Z,7.30
2018-01-01T17:26:31.160Z,7.30
2018-01-01T17:28:58.495Z,7.30
2018-01-01T17:31:25.496Z,7.30
2018-01-01T17:33:51.807Z,7.30
2018-01-01T17:36:18.017Z,7.30
2018-01-01T17:38:44.372Z,7.30
2018-01-01T17:41:10.656Z,7.30
2018-01-01T17:43:36.920Z,7.20
2018-01-01T17:46:03.112Z,7.20
2018-01-01T17:48:29.395Z,7.20
2018-01-01T17:50:55.607Z,7.20
2018-01-01T17:53:21.812Z,7.20
2018-01-01T17:55:48.120Z,7.30
2018-01-01T17:58:14.403Z,7.30
2018-01-01T18:00:40.613Z,7.40
2018-01-01T18:03:06.911Z,7.40
2018-01-01T18:05:33.120Z,7.40
2018-01-01T18:08:00.026Z,7.50
2018-01-01T18:10:26.275Z,7.50
2018-01-01T18:12:52.482Z,7.60
2018-01-01T18:15:19.451Z,7.60
2018-01-01T18:17:45.689Z,7.50
2018-01-01T18:20:11.863Z,7.60
2018-01-01T18:22:38.081Z,7.60
2018-01-01T18:25:05.323Z,7.60
2018-01-01T18:27:32.736Z,7.60
2018-01-01T18:29:58.963Z,7.60
2018-01-01T18:32:25.223Z,7.50
2018-01-01T18:34:51.504Z,7.50
2018-01-01T18:37:19.979Z,7.40
2018-01-01T18:39:46.193Z,7.40
2018-01-01T18:42:12.407Z,7.30
2018-01-01T18:44:39.010Z,7.30
2018-01-01T18:47:06.455Z,7.20
2018-01-01T18:49:32.684Z,7.20
2018-01-01T18:51:59.941Z,7.20
2018-01-01T18:54:27.295Z,7.20
2018-01-01T18:56:53.590Z,7.20
2018-01-01T18:59:23.108Z,7.20
2018-01-01T19:01:50.216Z,7.30
2018-01-01T19:04:16.434Z,7.30
2018-01-01T19:06:43.477Z,7.30
2018-01-01T19:09:09.857Z,7.30
2018-01-01T19:11:36.092Z,7.40
2018-01-01T19:14:02.336Z,7.40
2018-01-01T19:16:29.443Z,7.40
2018-01-01T19:18:55.742Z,7.40
2018-01-01T19:21:21.930Z,7.40
2018-01-01T19:23:48.108Z,7.50
2018-01-01T19:26:15.171Z,7.50
2018-01-01T19:28:41.405Z,7.50
2018-01-01T19:31:08.627Z,7.60
2018-01-01T19:33:34.935Z,7.60
2018-01-01T19:36:01.217Z,7.60
2018-01-01T19:38:28.112Z,7.70
2018-01-01T19:40:54.331Z,7.70
2018-01-01T19:43:21.600Z,7.70
2018-01-01T19:45:47.822Z,7.70
2018-01-01T19:48:14.747Z,7.70
2018-01-01T19:50:41.013Z,7.70
2018-01-01T19:53:07.495Z,7.70
2018-01-01T19:55:33.685Z,7.70
2018-01-01T19:57:59.856Z,7.70
2018-01-01T20:00:26.178Z,7.70
2018-01-01T20:02:52.352Z,7.70
2018-01-01T20:05:18.544Z,7.80
2018-01-01T20:07:45.485Z,7.80
2018-01-01T20:10:11.754Z,7.80
2018-01-01T20:12:37.975Z,8.20
2018-01-01T20:15:04.360Z,8.10
2018-01-01T20:17:30.620Z,8.00
2018-01-01T20:19:56.815Z,7.90
2018-01-01T20:22:23.072Z,7.90
2018-01-01T20:24:49.332Z,7.90
2018-01-01T20:27:15.630Z,7.90
2018-01-01T20:29:41.936Z,7.90
2018-01-01T20:32:09.220Z,7.90
2018-01-01T20:34:35.444Z,7.80
2018-01-01T20:37:01.847Z,7.70
2018-01-01T20:39:28.078Z,7.70
2018-01-01T20:41:54.254Z,7.60
2018-01-01T20:44:20.486Z,7.60
2018-01-01T20:46:46.642Z,7.50
2018-01-01T20:49:12.831Z,7.40
2018-01-01T20:51:39.759Z,7.30
2018-01-01T20:54:06.098Z,7.20
2018-01-01T20:56:32.312Z,7.20
2018-01-01T20:58:58.704Z,7.10
2018-01-01T21:01:25.941Z,7.10
2018-01-01T21:03:52.163Z,7.10
2018-01-01T21:06:19.090Z,7.00
2018-01-01T21:08:45.278Z,7.00
2018-01-01T21:11:11.462Z,7.00
2018-01-01T21:13:37.688Z,6.90
2018-01-01T21:16:03.913Z,6.90
2018-01-01T21:18:30.091Z,6.90
2018-01-01T21:20:56.346Z,6.90
2018-01-01T21:23:22.640Z,6.80
2018-01-01T21:25:48.851Z,6.90
2018-01-01T21:28:15.065Z,6.80
2018-01-01T21:30:41.304Z,6.80
2018-01-01T21:33:08.751Z,6.80
2018-01-01T21:35:35.047Z,6.80
2018-01-01T21:38:01.260Z,6.80
2018-01-01T21:40:27.565Z,6.80
2018-01-01T21:42:53.748Z,6.80
2018-01-01T21:45:20.716Z,6.80
2018-01-01T21:47:48.009Z,6.80
2018-01-01T21:50:14.377Z,6.80
2018-01-01T21:52:40.608Z,6.80
2018-01-01T21:55:06.811Z,6.70
2018-01-01T21:57:33.244Z,6.70
2018-01-01T21:59:59.466Z,6.80
2018-01-01T22:02:26.409Z,6.70
2018-01-01T22:04:53.328Z,6.80
2018-01-01T22:07:20.499Z,6.80
2018-01-01T22:09:46.688Z,6.70
2018-01-01T22:12:13.694Z,6.70
2018-01-01T22:14:40.151Z,6.70
2018-01-01T22:17:06.324Z,6.80
2018-01-01T22:19:32.564Z,6.70
2018-01-01T22:21:59.644Z,6.70
2018-01-01T22:24:26.002Z,6.80
2018-01-01T22:26:52.968Z,6.80
2018-01-01T22:29:19.231Z,6.70
2018-01-01T22:31:45.503Z,6.80
2018-01-01T22:34:11.747Z,6.70
2018-01-01T22:36:37.976Z,6.70
2018-01-01T22:39:04.220Z,6.70
2018-01-01T22:41:31.704Z,6.70
2018-01-01T22:43:57.931Z,6.70
2018-01-01T22:46:24.136Z,6.70
2018-01-01T22:48:50.505Z,6.70
2018-01-01T22:51:17.488Z,6.70
2018-01-01T22:53:43.726Z,6.70
2018-01-01T22:56:10.678Z,6.70
2018-01-01T22:58:37.812Z,6.70
2018-01-01T23:01:04.278Z,6.70
2018-01-01T23:03:30.578Z,6.70
2018-01-01T23:05:56.851Z,6.70
2018-01-01T23:08:23.803Z,6.70
2018-01-01T23:10:50.041Z,6.70
2018-01-01T23:13:16.236Z,6.70
2018-01-01T23:15:42.464Z,6.80
2018-01-01T23:18:08.623Z,6.80
2018-01-01T23:20:34.838Z,6.80
2018-01-01T23:23:01.899Z,6.80
2018-01-01T23:25:28.208Z,6.80
2018-01-01T23:27:54.383Z,6.80
2018-01-01T23:30:20.817Z,6.80
2018-01-01T23:32:47.775Z,6.80
2018-01-01T23:35:13.963Z,6.80
2018-01-01T23:37:40.912Z,6.80
2018-01-01T23:40:07.136Z,6.80
2018-01-01T23:42:33.403Z,6.80
2018-01-01T23:45:00.470Z,6.80
2018-01-01T23:47:26.696Z,6.90
2018-01-01T23:49:52.889Z,6.90
2018-01-01T23:52:19.867Z,6.90
2018-01-01T23:54:46.125Z,6.90
2018-01-01T23:57:12.415Z,6.80
2018-01-01T23:59:38.608Z,6.80
